Latest Weather Observations for Cape Grim

IDT60801

Issued at 6:05 am EDT Saturday 29 November 2014 (issued every 30 minutes, with the page automatically refreshed every 10 minutes)

About weather observations | Map of weather stations | Latest weather observations for TAS | Other Formats
Station Details ID: 091331 Name: CAPE GRIM Lat: -40.68 Lon: 144.69 Height: 86.0 m
Data from the previous 72 hours. | See also: Recent months at Cape Grim
Date/Time
EDT
Temp
°C
App
Temp
°C
Dew
Point
Rel
Hum
%
Delta-T
°C
Wind Press
QNH
hPa
Press
MSL
hPa
Rain
since 9 am
mm
Dir
 
Spd
km/h
Gust
km/h
Spd
kts
Gust
kts
29/06:00am 9.4 4.5 8.3 93 0.5 ESE 24 26 13 14 1018.0 1017.9 0.0
29/05:30am 9.4 4.1 8.3 93 0.5 ESE 26 28 14 15 1017.5 1017.5 0.0
29/05:00am 9.4 4.0 8.2 92 0.6 ESE 26 28 14 15 1017.5 1017.5 0.0
29/04:30am 9.6 4.6 8.2 91 0.7 ESE 24 28 13 15 1017.5 1017.5 0.0
29/04:00am 9.8 4.4 8.2 90 0.8 ESE 26 30 14 16 1017.6 1017.6 0.0
29/03:30am 10.1 4.8 8.4 89 0.8 ESE 26 30 14 16 1017.8 1017.7 0.0
29/03:00am 10.5 5.6 8.3 86 1.1 SE 24 28 13 15 1018.1 1018.0 0.0
29/02:30am 10.9 6.3 8.3 84 1.3 SE 22 26 12 14 1018.3 1018.2 0.0
29/02:00am 10.5 5.8 7.7 83 1.3 SE 22 26 12 14 1018.4 1018.3 0.0
29/01:30am 10.2 5.4 7.4 83 1.3 SE 22 26 12 14 1018.5 1018.4 0.0
29/01:00am 10.4 6.7 7.8 84 1.3 SSE 17 20 9 11 1018.9 1018.9 0.0
29/12:30am 10.4 6.6 7.6 83 1.3 S 17 20 9 11 1019.0 1019.0 0.0
29/12:00am 10.6 6.8 7.5 81 1.5 S 17 20 9 11 1019.2 1019.2 0.0
 
Date/Time
EDT
Temp
°C
App
Temp
°C
Dew
Point
Rel
Hum
%
Delta-T
°C
Wind Press
QNH
hPa
Press
MSL
hPa
Rain
since 9 am
mm
Dir
 
Spd
km/h
Gust
km/h
Spd
kts
Gust
kts
28/11:30pm 11.1 7.0 8.0 81 1.5 S 19 26 10 14 1019.3 1019.3 0.0
28/11:00pm 11.0 6.9 7.9 81 1.5 S 19 24 10 13 1019.5 1019.5 0.0
28/10:30pm 11.2 7.5 8.1 81 1.5 SSW 17 22 9 12 1019.8 1019.8 0.0
28/10:00pm 11.5 7.5 8.2 80 1.6 SSW 19 24 10 13 1019.8 1019.8 0.0
28/09:30pm 11.5 7.2 8.0 79 1.7 S 20 28 11 15 1019.8 1019.8 0.0
28/09:00pm 11.8 6.8 8.1 78 1.8 S 24 32 13 17 1019.8 1019.8 0.0
28/08:30pm 11.9 6.5 7.8 76 2.0 S 26 35 14 19 1020.0 1020.0 0.0
28/08:00pm 12.1 5.6 8.0 76 2.0 SSW 32 46 17 25 1020.0 1020.0 0.0
28/07:30pm 12.1 4.6 7.8 75 2.1 SSW 37 50 20 27 1020.0 1020.0 0.0
28/07:00pm 12.9 5.1 8.4 74 2.2 SSW 39 54 21 29 1020.2 1020.2 0.0
28/06:30pm 13.0 5.6 8.3 73 2.3 SSW 37 52 20 28 1020.3 1020.3 0.0
28/06:00pm 13.0 5.2 8.1 72 2.4 SSW 39 54 21 29 1020.4 1020.4 0.0
28/05:34pm 13.2 5.7 8.1 71 2.5 SSW 37 56 20 30 1020.4 1020.4 0.0
28/05:30pm 13.3 5.4 8.0 70 2.6 SSW 39 56 21 30 1020.4 1020.4 0.0
28/05:21pm 13.1 5.9 7.8 70 2.6 SSW 35 54 19 29 1020.5 1020.5 0.0
28/05:00pm 13.1 5.8 7.3 68 2.8 SSW 35 52 19 28 1020.6 1020.6 0.0
28/04:48pm 13.0 5.3 7.0 67 2.9 SSW 37 56 20 30 1020.5 1020.5 0.0
28/04:30pm 13.4 6.2 7.6 68 2.9 SW 35 50 19 27 1020.6 1020.6 0.0
28/04:00pm 13.5 6.3 7.5 67 2.9 SSW 35 48 19 26 1020.8 1020.8 0.0
28/03:30pm 13.3 6.1 7.5 68 2.8 SW 35 50 19 27 1020.9 1020.9 0.0
28/03:00pm 13.8 6.7 8.2 69 2.8 SW 35 46 19 25 1021.1 1021.1 0.0
28/02:30pm 13.8 6.7 8.2 69 2.8 SW 35 52 19 28 1021.3 1021.3 0.0
28/02:00pm 13.5 5.7 6.8 64 3.2 SW 37 52 20 28 1021.7 1021.7 0.0
28/01:52pm 13.5 6.5 6.8 64 3.2 SSW 33 52 18 28 1021.8 1021.8 0.0
28/01:30pm 13.6 6.3 7.4 66 3.0 SW 35 50 19 27 1022.1 1022.1 0.0
28/01:00pm 13.7 6.1 7.5 66 3.0 SW 37 48 20 26 1022.2 1022.2 0.0
28/12:30pm 13.4 5.8 7.4 67 2.9 SW 37 50 20 27 1022.5 1022.5 0.0
28/12:00pm 13.1 5.7 6.7 65 3.1 SW 35 46 19 25 1022.7 1022.7 0.0
28/11:30am 13.1 6.3 6.7 65 3.1 SW 32 43 17 23 1022.8 1022.8 0.0
28/11:00am 13.3 7.4 7.3 67 2.9 SW 28 41 15 22 1022.9 1022.9 0.0
28/10:30am 13.0 6.5 6.6 65 3.1 SW 30 43 16 23 1023.1 1023.1 0.0
28/10:00am 12.9 7.5 6.5 65 3.1 SSW 24 37 13 20 1023.2 1023.2 0.0
28/09:30am 12.8 6.5 5.9 63 3.3 SSW 28 37 15 20 1023.5 1023.5 0.0
28/09:00am 12.4 5.4 6.0 65 3.0 SSW 32 43 17 23 1023.7 1023.7 0.0
28/08:30am 11.8 5.2 5.9 67 2.8 SSW 30 48 16 26 1023.6 1023.6 0.0
28/08:28am 11.6 4.9 5.7 67 2.8 SSW 30 48 16 26 1023.6 1023.6 0.0
28/08:00am 11.6 6.5 6.1 69 2.6 S 22 28 12 15 1023.5 1023.5 0.0
28/07:30am 11.0 5.1 5.7 70 2.5 S 26 35 14 19 1023.3 1023.3 0.0
28/07:00am 10.7 4.7 5.5 70 2.4 S 26 35 14 19 1023.2 1023.2 0.0
28/06:30am 10.0 2.8 5.0 71 2.3 S 32 48 17 26 1023.1 1023.1 0.0
28/06:00am 9.9 2.8 5.3 73 2.1 S 32 44 17 24 1023.0 1023.0 0.0
28/05:30am 9.8 2.7 5.4 74 2.0 S 32 46 17 25 1022.8 1022.8 0.0
28/05:00am 9.9 2.8 5.5 74 2.0 S 32 43 17 23 1022.7 1022.7 0.0
28/04:30am 9.9 2.6 5.5 74 2.0 S 33 43 18 23 1022.6 1022.6 0.0
28/04:00am 9.4 3.1 5.6 77 1.7 S 28 37 15 20 1022.5 1022.5 0.0
28/03:30am 9.4 3.1 5.8 78 1.7 S 28 37 15 20 1022.7 1022.7 0.0
28/03:00am 9.5 4.0 6.0 79 1.6 S 24 35 13 19 1022.9 1022.9 0.0
28/02:30am 9.7 3.9 6.1 78 1.7 S 26 32 14 17 1023.1 1023.1 0.0
28/02:00am 10.2 3.7 6.4 77 1.8 S 30 39 16 21 1023.1 1023.1 0.0
28/01:30am 10.4 4.3 6.7 78 1.7 S 28 44 15 24 1023.1 1023.1 0.0
28/01:00am 10.3 3.8 6.5 77 1.8 S 30 39 16 21 1023.1 1023.1 0.0
28/12:30am 10.7 3.3 6.6 76 1.9 S 35 48 19 26 1023.4 1023.4 0.0
28/12:00am 10.7 2.1 6.6 76 1.9 SSW 41 57 22 31 1023.6 1023.6 0.0
 
Date/Time
EDT
Temp
°C
App
Temp
°C
Dew
Point
Rel
Hum
%
Delta-T
°C
Wind Press
QNH
hPa
Press
MSL
hPa
Rain
since 9 am
mm
Dir
 
Spd
km/h
Gust
km/h
Spd
kts
Gust
kts
27/11:30pm 10.9 2.8 7.0 77 1.9 SSW 39 54 21 29 1023.7 1023.7 0.0
27/11:00pm 11.1 3.4 7.0 76 1.9 SSW 37 50 20 27 1024.0 1024.0 0.0
27/10:30pm 11.0 2.8 6.7 75 2.0 SSW 39 50 21 27 1023.9 1023.9 0.0
27/10:00pm 11.1 3.7 6.8 75 2.0 SSW 35 44 19 24 1024.0 1024.0 0.0
27/09:30pm 11.2 3.8 6.7 74 2.1 SSW 35 48 19 26 1023.9 1023.9 0.0
27/09:00pm 11.3 3.9 6.6 73 2.2 SSW 35 48 19 26 1024.1 1024.1 0.0
27/08:30pm 11.4 4.0 6.7 73 2.2 SSW 35 46 19 25 1024.1 1024.1 0.0
27/08:00pm 11.9 4.1 6.8 71 2.4 SSW 37 50 20 27 1024.1 1024.1 0.0
27/07:30pm 12.0 3.8 6.7 70 2.5 SSW 39 56 21 30 1023.8 1023.8 0.0
27/07:21pm 12.2 4.0 6.7 69 2.6 SSW 39 57 21 31 1023.9 1023.9 0.0
27/07:00pm 12.5 4.8 7.2 70 2.6 SSW 37 54 20 29 1023.7 1023.7 0.0
27/06:30pm 12.7 5.5 7.6 71 2.5 SW 35 50 19 27 1023.8 1023.8 0.0
27/06:00pm 12.7 5.4 7.2 69 2.7 SW 35 46 19 25 1023.9 1023.9 0.0
27/05:30pm 13.0 5.0 7.5 69 2.7 SSW 39 54 21 29 1023.9 1023.9 0.0
27/05:17pm 12.9 4.8 6.9 67 2.9 SSW 39 59 21 32 1024.0 1024.0 0.0
27/05:00pm 13.1 5.4 6.9 66 3.0 SSW 37 50 20 27 1024.1 1024.1 0.0
27/04:30pm 13.2 5.4 6.8 65 3.1 SSW 37 54 20 29 1024.4 1024.4 0.0
27/04:00pm 13.4 4.8 6.7 64 3.2 SSW 41 54 22 29 1024.4 1024.4 0.0
27/03:44pm 13.3 5.6 6.9 65 3.1 SSW 37 56 20 30 1024.5 1024.5 0.0
27/03:30pm 13.4 5.7 7.2 66 3.0 SSW 37 50 20 27 1024.8 1024.8 0.0
27/03:01pm 13.3 5.6 7.1 66 3.0 SW 37 56 20 30 1025.2 1025.2 0.0
27/03:00pm 13.4 5.7 7.2 66 3.0 SW 37 50 20 27 1025.2 1025.2 0.0
27/02:37pm 13.4 5.7 7.0 65 3.1 SW 37 56 20 30 1025.3 1025.3 0.0
27/02:30pm 13.2 5.9 7.0 66 3.0 SW 35 50 19 27 1025.3 1025.3 0.0
27/02:06pm 13.2 5.9 7.0 66 3.0 SSW 35 54 19 29 1025.3 1025.3 0.0
27/02:00pm 13.4 6.1 7.4 67 2.9 SSW 35 52 19 28 1025.2 1025.2 0.0
27/01:30pm 13.2 5.9 7.2 67 2.9 SSW 35 52 19 28 1025.4 1025.4 0.0
27/01:06pm 13.5 5.5 7.3 66 3.0 SW 39 57 21 31 1025.5 1025.5 0.0
27/01:00pm 12.7 3.4 6.1 64 3.1 SW 44 57 24 31 1025.6 1025.6 0.0
27/12:30pm 13.1 5.3 6.7 65 3.1 SW 37 54 20 29 1025.6 1025.6 0.0
27/12:00pm 13.1 5.7 6.7 65 3.1 SW 35 48 19 26 1025.5 1025.5 0.0
27/11:50am 13.0 5.6 6.6 65 3.1 SW 35 54 19 29 1025.6 1025.6 0.0
27/11:30am 13.2 5.8 6.8 65 3.1 SSW 35 48 19 26 1025.6 1025.6 0.0
27/11:00am 12.9 5.4 6.3 64 3.1 SSW 35 54 19 29 1025.6 1025.6 0.0
27/10:44am 12.7 4.9 6.5 66 3.0 SW 37 57 20 31 1025.7 1025.7 0.0
27/10:30am 12.8 5.3 6.4 65 3.1 SW 35 48 19 26 1025.7 1025.7 0.0
27/10:00am 13.0 6.0 6.8 66 3.0 SSW 33 48 18 26 1025.8 1025.8 0.0
27/09:30am 12.7 5.3 6.7 67 2.9 SSW 35 48 19 26 1025.9 1025.9 0.0
27/09:00am 11.8 3.9 6.3 69 2.6 SW 37 48 20 26 1026.1 1026.1 0.0
27/08:30am 12.0 5.3 5.6 65 3.0 SSW 30 41 16 22 1025.9 1025.9 0.0
27/08:00am 11.5 5.2 5.6 67 2.7 SSW 28 43 15 23 1025.7 1025.7 0.0
27/07:30am 11.3 4.7 6.2 71 2.4 SSW 30 41 16 22 1025.4 1025.4 0.0
27/07:00am 11.1 4.7 5.2 67 2.7 SSW 28 46 15 25 1025.1 1025.1 0.0
27/06:59am 11.1 4.7 5.2 67 2.7 SSW 28 46 15 25 1025.1 1025.1 0.0
27/06:30am 10.8 4.8 5.3 69 2.5 SSW 26 39 14 21 1024.9 1024.9 0.0
27/06:00am 10.4 3.7 5.4 71 2.3 SSW 30 41 16 22 1024.4 1024.4 0.0
27/05:30am 10.3 3.0 4.7 68 2.5 SSW 32 41 17 22 1024.3 1024.3 0.0
27/05:07am 10.9 4.2 5.4 69 2.5 S 30 50 16 27 1024.0 1024.0 0.0
27/05:00am 10.9 3.8 5.4 69 2.5 SSW 32 41 17 22 1023.9 1023.9 0.0
27/04:49am 10.9 4.1 5.2 68 2.6 S 30 48 16 26 1024.0 1024.0 0.0
27/04:30am 11.1 4.0 5.4 68 2.6 SSW 32 43 17 23 1023.9 1023.9 0.0
27/04:00am 10.7 3.9 5.0 68 2.6 SSW 30 41 16 22 1023.8 1023.8 0.0
27/03:30am 10.9 4.5 5.4 69 2.5 SSW 28 41 15 22 1023.6 1023.6 0.0
27/03:00am 10.7 3.8 4.8 67 2.7 SSW 30 44 16 24 1023.5 1023.5 0.0
27/02:30am 11.1 4.4 5.8 70 2.5 SW 30 43 16 23 1023.5 1023.5 0.0
27/02:00am 11.0 3.9 5.3 68 2.6 SSW 32 43 17 23 1023.4 1023.4 0.0
27/01:49am 11.2 4.5 5.7 69 2.6 SSW 30 48 16 26 1023.3 1023.3 0.0
27/01:30am 11.1 3.4 5.4 68 2.6 SSW 35 50 19 27 1023.4 1023.4 0.0
27/01:00am 11.0 3.6 5.1 67 2.7 SSW 33 44 18 24 1023.5 1023.5 0.0
27/12:30am 11.0 3.9 5.5 69 2.5 SSW 32 41 17 22 1023.7 1023.7 0.0
27/12:01am 10.9 3.1 4.8 66 2.8 SSW 35 54 19 29 1023.7 1023.7 0.0
27/12:00am 11.0 2.8 4.7 65 2.8 SSW 37 54 20 29 1023.7 1023.7 0.0
 
Date/Time
EDT
Temp
°C
App
Temp
°C
Dew
Point
Rel
Hum
%
Delta-T
°C
Wind Press
QNH
hPa
Press
MSL
hPa
Rain
since 9 am
mm
Dir
 
Spd
km/h
Gust
km/h
Spd
kts
Gust
kts
26/11:36pm 11.1 3.3 4.8 65 2.9 SSW 35 54 19 29 1023.7 1023.7 0.0
26/11:30pm 11.2 3.9 5.3 67 2.7 SSW 33 50 18 27 1023.6 1023.6 0.0
26/11:13pm 11.1 3.3 4.8 65 2.9 SSW 35 54 19 29 1023.6 1023.6 0.0
26/11:00pm 11.1 2.9 4.8 65 2.9 SSW 37 48 20 26 1023.6 1023.6 0.0
26/10:32pm 11.5 4.3 5.2 65 2.9 SSW 32 50 17 27 1023.5 1023.5 0.0
26/10:30pm 11.5 4.4 5.6 67 2.7 SSW 32 46 17 25 1023.5 1023.5 0.0
26/10:00pm 11.3 4.3 6.0 70 2.5 SSW 32 48 17 26 1023.4 1023.4 0.0
26/09:30pm 11.3 3.5 6.8 74 2.1 SSW 37 46 20 25 1023.0 1023.0 0.0
26/09:00pm 11.2 3.7 6.5 73 2.2 SSW 35 46 19 25 1022.8 1022.8 0.0
26/08:30pm 11.3 3.4 6.4 72 2.3 SW 37 52 20 28 1022.6 1022.6 0.0
26/08:00pm 11.8 4.1 7.3 74 2.2 SW 37 54 20 29 1022.5 1022.5 0.0
26/07:48pm 11.7 4.4 7.0 73 2.3 SSW 35 54 19 29 1022.4 1022.4 0.0
26/07:30pm 11.6 3.7 6.3 70 2.5 SSW 37 50 20 27 1022.0 1022.0 0.0
26/07:00pm 12.6 4.6 7.5 71 2.5 SW 39 50 21 27 1021.8 1021.8 0.0
26/06:44pm 12.2 4.2 7.3 72 2.4 SW 39 57 21 31 1021.7 1021.7 0.0
26/06:30pm 11.9 2.9 6.6 70 2.5 SW 43 56 23 30 1021.5 1021.5 0.0
26/06:21pm 12.0 4.0 7.5 74 2.2 SW 39 57 21 31 1021.4 1021.4 0.0
26/06:00pm 12.0 3.1 6.7 70 2.5 SW 43 52 23 28 1021.2 1021.2 0.0
26/05:47pm 12.0 3.8 6.5 69 2.6 SW 39 59 21 32 1021.2 1021.2 0.0
26/05:30pm 12.1 3.6 7.0 71 2.5 SW 41 50 22 27 1021.1 1021.1 0.0
26/05:00pm 12.9 4.0 7.6 70 2.6 SW 44 56 24 30 1021.0 1021.0 0.0
26/04:30pm 12.6 5.1 8.1 74 2.2 SW 37 52 20 28 1021.0 1021.0 0.0
26/04:00pm 12.6 3.6 7.3 70 2.6 SW 44 56 24 30 1020.8 1020.8 0.0
26/03:30pm 13.2 4.5 7.6 69 2.8 SW 43 56 23 30 1020.7 1020.7 0.0
26/03:00pm 11.8 2.6 8.1 78 1.8 SW 46 57 25 31 1020.5 1020.5 0.0
26/02:34pm 12.3 3.6 7.6 73 2.3 SW 43 61 23 33 1020.4 1020.4 0.0
26/02:30pm 12.5 4.9 7.6 72 2.4 SW 37 52 20 28 1020.3 1020.3 0.0
26/02:16pm 13.6 6.4 9.1 74 2.3 SW 37 56 20 30 1020.3 1020.3 0.0
26/02:00pm 13.5 4.6 7.7 68 2.9 SW 44 54 24 29 1020.3 1020.3 0.0
26/01:30pm 13.6 5.0 8.0 69 2.8 SW 43 54 23 29 1020.2 1020.2 0.0
26/01:00pm 13.7 4.3 7.2 65 3.2 SW 46 54 25 29 1020.2 1020.2 0.0
26/12:30pm 13.2 4.1 6.1 62 3.4 SW 43 54 23 29 1020.0 1020.0 0.0
26/12:00pm 13.7 4.5 6.3 61 3.5 SW 44 56 24 30 1019.8 1019.8 0.0
26/11:30am 13.6 4.1 6.5 62 3.4 SW 46 56 25 30 1019.5 1019.5 0.0
26/11:06am 12.7 4.6 7.0 68 2.8 SW 39 57 21 31 1019.3 1019.3 0.0
26/11:00am 12.7 5.2 7.8 72 2.4 SW 37 54 20 29 1019.3 1019.3 0.0
26/10:30am 13.6 5.3 7.6 67 3.0 SW 41 54 22 29 1019.0 1019.0 0.0
26/10:00am 12.9 3.4 6.5 65 3.1 SW 46 57 25 31 1018.8 1018.8 0.0
26/09:30am 12.8 3.7 6.8 67 2.9 SW 44 56 24 30 1018.7 1018.7 0.0
26/09:00am 12.7 2.4 6.7 67 2.9 SW 50 59 27 32 1018.4 1018.3 1.0
26/08:30am 12.8 2.6 7.0 68 2.8 SW 50 61 27 33 1018.0 1017.9 1.0
26/08:00am 12.4 3.0 7.3 71 2.5 SW 46 56 25 30 1017.5 1017.5 1.0
26/07:30am 12.2 3.5 7.5 73 2.3 SW 43 54 23 29 1017.1 1017.1 1.0
26/07:00am 11.8 3.2 8.8 82 1.5 SW 44 57 24 31 1016.8 1016.8 1.0
26/06:30am 11.8 4.0 9.7 87 1.1 SW 41 54 22 29 1016.6 1016.6 1.0

Other Formats:

Comma delimited format used in spreadsheet applications
http://www.bom.gov.au/fwo/IDT60801/IDT60801.95954.axf

JavaScript Object Notation format (JSON) in row-major order
http://www.bom.gov.au/fwo/IDT60801/IDT60801.95954.json